Time;durP1;ratioP1;P1;durP2;ratioP2;P2;SDS_P1;SDS_P2;PMS_P1;PMS_P2;Temp;Humidity;BMP_temperature;BMP_pressure;BME280_temperature;BME280_humidity;BME280_pressure;Samples;Min_cycle;Max_cycle;Signal;HPM_P1;HPM_P2
2022/03/20 00:00:22;;;;;;;4.10;2.50;;;;;;;6.09;60.23;103369.91;5052175;28;19913;-35
2022/03/20 00:02:48;;;;;;;5.95;2.40;;;;;;;6.05;60.42;103370.31;5052122;28;20033;-34
2022/03/20 00:05:14;;;;;;;6.13;2.85;;;;;;;6.04;59.83;103365.94;5052509;28;20036;-34
2022/03/20 00:07:41;;;;;;;;;;;;;;;6.06;60.02;103363.97;5054688;28;20048;-34
2022/03/20 00:10:08;;;;;;;5.45;2.60;;;;;;;6.00;60.67;103351.94;5056134;28;19913;-35
2022/03/20 00:12:34;;;;;;;4.88;2.65;;;;;;;5.92;60.87;103363.38;5056049;28;20029;-35
2022/03/20 00:14:59;;;;;;;9.32;3.05;;;;;;;5.88;60.51;103356.56;5055947;28;20579;-35
2022/03/20 00:17:25;;;;;;;4.80;2.90;;;;;;;5.70;61.16;103344.78;5055730;28;20033;-35
2022/03/20 00:19:50;;;;;;;4.80;3.17;;;;;;;5.60;61.77;103335.84;5055626;28;20064;-35
2022/03/20 00:22:15;;;;;;;5.17;3.13;;;;;;;5.60;61.23;103351.97;5055581;28;20127;-35
2022/03/20 00:24:43;;;;;;;4.83;2.80;;;;;;;5.40;62.35;103333.13;5055127;28;20431;-34
2022/03/20 00:27:12;;;;;;;5.63;2.92;;;;;;;5.43;62.62;103343.59;5055597;28;20307;-35
2022/03/20 00:29:38;;;;;;;4.72;2.92;;;;;;;5.38;62.25;103335.09;5055896;28;20041;-34
2022/03/20 00:32:05;;;;;;;4.95;2.88;;;;;;;5.34;62.64;103330.97;5055028;28;20042;-34
2022/03/20 00:34:31;;;;;;;5.57;2.97;;;;;;;5.24;62.60;103318.53;5055604;28;20029;-35
2022/03/20 00:36:56;;;;;;;7.00;3.35;;;;;;;5.21;63.14;103324.16;5055288;28;20354;-35
2022/03/20 00:39:21;;;;;;;7.47;3.00;;;;;;;5.02;63.59;103293.56;5055815;28;20025;-34
2022/03/20 00:41:47;;;;;;;5.50;3.20;;;;;;;5.08;64.39;103311.84;5055196;28;20032;-36
2022/03/20 00:44:12;;;;;;;6.30;3.73;;;;;;;5.04;63.71;103304.19;5055480;28;20028;-35
2022/03/20 00:46:37;;;;;;;5.27;3.27;;;;;;;5.03;64.41;103308.69;5055587;28;20033;-35
2022/03/20 00:49:03;;;;;;;9.33;3.20;;;;;;;5.00;64.61;103310.78;5054777;28;20025;-34
2022/03/20 00:51:28;;;;;;;8.10;3.20;;;;;;;4.93;64.72;103297.09;5055156;28;20021;-35
2022/03/20 00:53:54;;;;;;;6.20;3.60;;;;;;;4.85;64.91;103300.41;5055357;28;20217;-34
2022/03/20 00:56:19;;;;;;;6.20;3.40;;;;;;;4.82;65.02;103299.84;5055154;28;20029;-34
2022/03/20 00:58:46;;;;;;;6.43;3.50;;;;;;;4.83;64.88;103296.16;5055224;28;20374;-34
2022/03/20 01:01:14;;;;;;;8.27;3.65;;;;;;;4.74;65.65;103294.31;5054805;28;20025;-34
2022/03/20 01:03:40;;;;;;;4.97;3.50;;;;;;;4.73;65.71;103287.22;5055299;28;20359;-35
2022/03/20 01:06:06;;;;;;;;;;;;;;;4.80;64.90;103293.78;5055864;28;20112;-34
2022/03/20 01:08:32;;;;;;;6.10;2.70;;;;;;;4.65;66.55;103288.75;5054710;28;20017;-35
2022/03/20 01:10:57;;;;;;;6.10;3.40;;;;;;;4.54;65.81;103274.56;5055378;28;20419;-34
2022/03/20 01:13:23;;;;;;;9.93;4.43;;;;;;;4.50;66.38;103275.81;5054635;28;20067;-35
2022/03/20 01:15:49;;;;;;;6.15;3.28;;;;;;;4.53;66.14;103270.19;5055352;28;20056;-35
2022/03/20 01:18:14;;;;;;;5.88;4.35;;;;;;;4.60;66.29;103276.72;5053824;28;20069;-34
2022/03/20 01:20:40;;;;;;;6.60;4.23;;;;;;;4.51;66.59;103282.88;5055214;28;20036;-34
2022/03/20 01:23:05;;;;;;;8.53;4.30;;;;;;;4.35;66.79;103257.41;5054782;28;20124;-34
2022/03/20 01:25:30;;;;;;;7.37;4.73;;;;;;;4.45;66.78;103280.72;5054395;28;20021;-34
2022/03/20 01:27:56;;;;;;;6.57;4.20;;;;;;;4.42;66.65;103263.06;5054619;28;20032;-34
2022/03/20 01:30:22;;;;;;;5.13;3.97;;;;;;;4.50;66.47;103265.09;5054397;28;20036;-35
2022/03/20 01:32:47;;;;;;;7.18;5.00;;;;;;;4.44;66.66;103260.25;5053997;28;20029;-35
2022/03/20 01:35:13;;;;;;;8.57;5.00;;;;;;;4.50;66.55;103249.03;5054582;28;20353;-35
2022/03/20 01:37:41;;;;;;;7.03;5.45;;;;;;;4.43;66.13;103247.84;5054184;28;20021;-35
2022/03/20 01:40:07;;;;;;;8.63;6.32;;;;;;;4.48;66.23;103241.09;5054004;28;20397;-35
2022/03/20 01:42:33;;;;;;;;;;;;;;;4.50;65.62;103239.16;5054389;28;20484;-35
2022/03/20 01:44:58;;;;;;;8.52;6.63;;;;;;;4.41;65.65;103223.88;5052597;28;19913;-34
2022/03/20 01:47:23;;;;;;;7.37;6.30;;;;;;;4.48;65.23;103210.78;5053909;28;20040;-34
2022/03/20 01:49:48;;;;;;;9.83;7.37;;;;;;;4.55;65.34;103214.66;5054570;28;20032;-34
2022/03/20 01:52:15;;;;;;;9.77;6.77;;;;;;;4.51;65.04;103202.50;5054205;28;20450;-34
2022/03/20 01:54:44;;;;;;;10.15;7.65;;;;;;;4.43;65.49;103205.81;5054357;28;20029;-34
2022/03/20 01:57:13;;;;;;;12.40;7.60;;;;;;;4.38;65.23;103200.84;5053954;28;20057;-34
2022/03/20 01:59:39;;;;;;;9.55;7.72;;;;;;;4.38;65.56;103206.22;5053935;28;20108;-34
2022/03/20 02:02:05;;;;;;;10.55;8.35;;;;;;;4.30;65.83;103206.06;5053885;28;20052;-34
2022/03/20 02:04:30;;;;;;;;;;;;;;;4.39;65.38;103199.91;5054571;28;20040;-34
2022/03/20 02:06:56;;;;;;;11.43;7.97;;;;;;;4.38;66.01;103202.69;5054086;28;19942;-34
2022/03/20 02:09:21;;;;;;;11.50;8.47;;;;;;;4.23;65.50;103194.16;5053665;28;20064;-34
2022/03/20 02:11:47;;;;;;;10.40;8.83;;;;;;;4.24;66.00;103201.19;5054136;28;20429;-34
2022/03/20 02:14:13;;;;;;;12.52;8.75;;;;;;;4.14;65.89;103184.22;5053972;28;20036;-34
2022/03/20 02:16:39;;;;;;;10.27;8.32;;;;;;;4.13;66.04;103188.72;5053506;28;20029;-34
2022/03/20 02:19:08;;;;;;;9.57;8.38;;;;;;;4.14;65.84;103189.59;5053330;28;20040;-34
2022/03/20 02:21:47;;;;;;;11.25;9.45;;;;;;;4.20;65.85;103191.75;5053389;28;20037;-34
2022/03/20 02:24:41;;;;;;;9.52;7.97;;;;;;;4.16;66.09;103184.13;5052910;28;20036;-34
2022/03/20 02:27:19;;;;;;;10.15;8.85;;;;;;;4.12;66.36;103170.97;5052979;28;20025;-34
2022/03/20 02:29:52;;;;;;;12.27;9.82;;;;;;;4.09;66.58;103173.06;5053173;28;20024;-34
2022/03/20 02:32:23;;;;;;;10.30;8.45;;;;;;;4.05;66.58;103171.63;5052717;28;20053;-35
2022/03/20 02:34:49;;;;;;;13.85;9.77;;;;;;;4.00;66.76;103161.34;5052849;28;20025;-34
2022/03/20 02:37:17;;;;;;;11.93;9.48;;;;;;;3.93;67.05;103153.94;5053367;28;20037;-35
2022/03/20 02:39:43;;;;;;;11.98;9.27;;;;;;;3.91;66.48;103155.91;5053174;28;20025;-34
2022/03/20 02:42:09;;;;;;;13.23;9.55;;;;;;;3.95;66.45;103154.66;5052779;28;20087;-34
2022/03/20 02:44:48;;;;;;;11.82;9.25;;;;;;;3.94;66.75;103144.94;5052995;28;20033;-34
2022/03/20 02:47:14;;;;;;;10.25;8.88;;;;;;;3.94;66.41;103155.63;5053677;28;20033;-34
2022/03/20 02:49:40;;;;;;;13.17;10.67;;;;;;;3.84;66.76;103140.34;5053034;28;20095;-34
2022/03/20 02:52:07;;;;;;;14.55;10.13;;;;;;;3.85;66.93;103144.72;5052432;28;20130;-34
2022/03/20 02:54:32;;;;;;;;;;;;;;;3.97;66.04;103150.03;5053668;28;20381;-34
2022/03/20 02:56:57;;;;;;;13.20;9.25;;;;;;;3.93;66.98;103137.88;5053067;28;19912;-35
2022/03/20 02:59:22;;;;;;;13.93;10.07;;;;;;;3.90;66.41;103132.78;5052947;28;20025;-34
2022/03/20 03:01:48;;;;;;;14.03;10.83;;;;;;;3.78;66.81;103140.88;5053018;28;20037;-34
2022/03/20 03:04:13;;;;;;;13.03;10.87;;;;;;;3.59;67.32;103124.69;5052526;28;20485;-34
2022/03/20 03:06:38;;;;;;;12.60;10.23;;;;;;;3.68;67.64;103141.81;5052253;28;20048;-34
2022/03/20 03:11:48;;;;;;;14.07;10.98;;;;;;;3.49;68.28;103116.59;5052631;28;20147;-34
2022/03/20 03:17:27;;;;;;;13.27;10.98;;;;;;;3.38;68.84;103123.81;5030531;28;20033;-34
2022/03/20 03:19:56;;;;;;;12.50;10.73;;;;;;;3.43;69.14;103116.25;5030677;28;20033;-34
2022/03/20 03:22:24;;;;;;;12.38;10.60;;;;;;;3.36;69.18;103114.06;5030409;28;20043;-34
2022/03/20 03:24:49;;;;;;;13.38;10.50;;;;;;;3.37;69.12;103101.59;5030272;28;20030;-34
2022/03/20 03:27:15;;;;;;;17.07;10.80;;;;;;;3.14;69.54;103089.28;5031056;28;20030;-34
2022/03/20 03:29:40;;;;;;;13.33;10.87;;;;;;;3.23;70.00;103110.75;5030691;28;20111;-34
2022/03/20 03:32:06;;;;;;;13.93;11.07;;;;;;;3.27;69.96;103103.31;5030461;28;20036;-34
2022/03/20 03:37:20;;;;;;;12.65;10.85;;;;;;;3.20;69.85;103089.59;5030331;28;20155;-34
2022/03/20 03:39:46;;;;;;;13.77;11.35;;;;;;;3.15;70.08;103088.28;5030298;28;20397;-34
2022/03/20 03:42:11;;;;;;;14.18;11.10;;;;;;;3.16;70.07;103076.63;5032046;28;20128;-34
2022/03/20 03:44:36;;;;;;;16.13;11.57;;;;;;;3.07;70.45;103071.09;5033864;28;20033;-34
2022/03/20 03:47:02;;;;;;;15.60;11.83;;;;;;;3.16;70.03;103072.13;5036229;28;20033;-34
2022/03/20 03:49:28;;;;;;;15.63;11.73;;;;;;;3.16;70.57;103068.59;5056159;28;20388;-34
2022/03/20 03:51:54;;;;;;;14.60;12.33;;;;;;;3.08;70.26;103069.25;5055969;28;20107;-34
2022/03/20 03:54:19;;;;;;;14.77;11.90;;;;;;;3.04;70.13;103057.13;5056670;28;20367;-34
2022/03/20 03:56:45;;;;;;;17.03;11.67;;;;;;;3.14;69.94;103059.88;5056400;28;20028;-34
2022/03/20 03:59:10;;;;;;;14.40;11.80;;;;;;;2.98;70.08;103045.13;5055752;28;20104;-34
2022/03/20 04:01:36;;;;;;;14.87;11.67;;;;;;;3.02;70.22;103048.34;5055981;28;20029;-34
2022/03/20 04:04:01;;;;;;;15.30;11.90;;;;;;;3.09;69.95;103054.91;5055814;28;20036;-34
2022/03/20 04:06:27;;;;;;;14.17;11.77;;;;;;;3.14;70.13;103042.00;5055690;28;20056;-34
2022/03/20 04:08:54;;;;;;;12.52;11.23;;;;;;;3.07;70.35;103056.84;5055529;28;20127;-34
2022/03/20 04:11:20;;;;;;;14.70;11.43;;;;;;;3.07;70.33;103051.50;5055606;28;20493;-34
2022/03/20 04:13:45;;;;;;;16.73;12.82;;;;;;;3.04;70.58;103046.41;5055446;28;20079;-34
2022/03/20 04:16:10;;;;;;;13.43;11.50;;;;;;;3.05;70.49;103040.09;5055683;28;20086;-34
2022/03/20 04:18:36;;;;;;;16.50;12.00;;;;;;;3.08;70.11;103046.03;5055645;28;20107;-35
2022/03/20 04:21:01;;;;;;;15.27;12.40;;;;;;;3.01;70.15;103041.31;5056254;28;20036;-34
2022/03/20 04:26:10;;;;;;;15.70;11.63;;;;;;;3.05;70.83;103029.41;5055408;28;20052;-34
2022/03/20 04:28:36;;;;;;;14.15;11.68;;;;;;;3.06;70.84;103021.25;5055309;28;20029;-34
2022/03/20 04:31:02;;;;;;;17.55;12.25;;;;;;;3.07;70.45;103017.63;5056146;28;20033;-34
2022/03/20 04:33:29;;;;;;;15.38;11.55;;;;;;;3.09;69.89;103006.78;5055560;28;20155;-34
2022/03/20 04:35:55;;;;;;;17.90;12.32;;;;;;;3.03;70.32;102993.94;5055332;28;20029;-34
2022/03/20 04:38:21;;;;;;;13.20;11.00;;;;;;;3.09;70.75;102990.75;5055150;28;20027;-34
2022/03/20 04:40:48;;;;;;;14.40;10.52;;;;;;;3.12;70.55;102990.47;5055342;28;20262;-34
2022/03/20 04:43:13;;;;;;;15.27;11.63;;;;;;;3.07;69.98;102984.66;5055726;28;20063;-34
2022/03/20 04:45:38;;;;;;;15.27;11.88;;;;;;;2.98;70.33;102991.66;5055173;28;20446;-34
2022/03/20 04:59:10;;;;;;;16.02;11.50;;;;;;;2.81;70.86;102965.47;5033486;28;20520;-34
2022/03/20 05:01:37;;;;;;;14.63;11.40;;;;;;;2.80;70.57;102977.16;5033263;28;20124;-34
2022/03/20 05:04:03;;;;;;;16.73;10.32;;;;;;;2.84;70.56;102974.09;5032929;28;20124;-34
2022/03/20 05:06:29;;;;;;;16.05;11.10;;;;;;;2.83;70.62;102971.53;5032946;28;20519;-34
2022/03/20 05:13:19;;;;;;;12.90;10.67;;;;;;;2.76;70.25;102955.19;5032652;28;20116;-34
2022/03/20 05:14:23;;;;;;;18.23;11.15;;;;;;;2.86;70.26;102959.75;5018895;28;20040;-34
2022/03/20 05:16:51;;;;;;;11.97;9.57;;;;;;;2.89;70.01;102944.31;5032411;28;20045;-34
2022/03/20 05:19:16;;;;;;;14.10;10.82;;;;;;;2.83;70.60;102944.81;5032250;28;20092;-34
2022/03/20 05:21:41;;;;;;;13.37;11.50;;;;;;;2.75;70.22;102940.13;5032551;28;20058;-34
2022/03/20 05:24:09;;;;;;;14.90;11.37;;;;;;;2.73;70.69;102941.22;5032289;28;20045;-34
2022/03/20 05:26:34;;;;;;;12.98;10.57;;;;;;;2.72;69.79;102942.19;5032780;28;20433;-34
2022/03/20 05:28:59;;;;;;;13.67;10.60;;;;;;;2.80;70.09;102950.44;5033701;28;20037;-33
2022/03/20 05:31:24;;;;;;;13.70;10.80;;;;;;;2.76;69.76;102944.50;5054345;28;20052;-34
2022/03/20 05:33:51;;;;;;;13.33;10.53;;;;;;;2.73;69.78;102930.53;5054580;28;20071;-33
2022/03/20 05:36:17;;;;;;;13.00;10.57;;;;;;;2.76;69.82;102944.50;5054144;28;20112;-34
2022/03/20 05:38:42;;;;;;;14.23;11.20;;;;;;;2.66;69.33;102910.66;5054056;28;20414;-34
2022/03/20 05:43:52;;;;;;;14.77;11.13;;;;;;;2.81;68.66;102928.06;5054351;28;20087;-34
2022/03/20 05:46:17;;;;;;;;;;;;;;;2.93;68.51;102937.75;5052961;28;20424;-35
2022/03/20 05:48:43;;;;;;;13.77;10.40;;;;;;;2.86;68.12;102936.53;5053683;28;19966;-34
2022/03/20 05:51:08;;;;;;;13.53;10.37;;;;;;;2.89;67.80;102925.59;5054565;28;20025;-34
2022/03/20 05:53:33;;;;;;;14.53;11.43;;;;;;;2.86;67.54;102931.19;5054512;28;20473;-34
2022/03/20 05:58:43;;;;;;;14.65;10.85;;;;;;;2.97;67.59;102916.91;5053609;28;20139;-34
2022/03/20 06:01:08;;;;;;;14.40;11.03;;;;;;;2.88;66.76;102910.56;5054608;28;20029;-34
2022/03/20 06:03:35;;;;;;;15.50;11.27;;;;;;;2.86;66.69;102909.81;5053506;28;20112;-35
2022/03/20 06:06:00;;;;;;;13.18;10.95;;;;;;;2.87;67.46;102906.16;5053956;28;20029;-34
2022/03/20 06:08:25;;;;;;;16.30;11.20;;;;;;;2.95;67.01;102905.53;5053878;28;20036;-34
2022/03/20 06:10:50;;;;;;;14.17;9.83;;;;;;;3.04;66.00;102907.41;5053366;28;20108;-35
2022/03/20 06:13:16;;;;;;;15.60;11.13;;;;;;;3.04;66.02;102915.44;5053494;28;20033;-34
2022/03/20 06:15:41;;;;;;;15.60;11.10;;;;;;;3.07;65.16;102910.69;5053322;28;20119;-34
2022/03/20 06:18:06;;;;;;;16.10;11.77;;;;;;;3.12;64.83;102918.28;5053701;28;20373;-35
2022/03/20 06:20:35;;;;;;;13.47;10.03;;;;;;;3.12;64.59;102904.06;5053423;28;20040;-34
2022/03/20 06:23:01;;;;;;;14.45;11.15;;;;;;;2.94;64.49;102872.63;5053335;28;20108;-35
2022/03/20 06:25:26;;;;;;;18.08;11.88;;;;;;;3.14;64.32;102894.97;5053513;28;20080;-35
2022/03/20 06:27:56;;;;;;;13.77;10.93;;;;;;;3.27;64.22;102900.06;5053542;28;20533;-35
2022/03/20 06:30:22;;;;;;;16.35;10.55;;;;;;;3.28;63.67;102897.28;5053674;28;20025;-34
2022/03/20 06:32:48;;;;;;;13.35;10.57;;;;;;;3.35;64.43;102902.94;5053342;28;20362;-34
2022/03/20 06:35:17;;;;;;;19.83;12.95;;;;;;;3.39;63.59;102893.69;5053367;28;20377;-34
2022/03/20 06:37:44;;;;;;;14.38;10.77;;;;;;;3.46;63.37;102902.00;5053798;28;20045;-35
2022/03/20 06:40:11;;;;;;;13.85;11.43;;;;;;;3.40;62.61;102902.53;5052799;28;20439;-34
2022/03/20 06:42:37;;;;;;;15.30;10.65;;;;;;;3.49;62.77;102912.44;5052970;28;20029;-34
2022/03/20 06:45:08;;;;;;;14.00;10.55;;;;;;;3.48;62.86;102902.72;5053649;28;20095;-34
2022/03/20 06:47:36;;;;;;;13.23;11.07;;;;;;;3.55;63.22;102898.53;5053217;28;20033;-34
2022/03/20 06:50:03;;;;;;;15.57;10.48;;;;;;;3.40;62.58;102867.78;5053298;28;20032;-34
2022/03/20 06:52:29;;;;;;;17.33;12.15;;;;;;;3.57;62.46;102899.25;5052713;28;20053;-34
2022/03/20 06:54:58;;;;;;;17.57;11.90;;;;;;;3.59;62.02;102889.25;5052898;28;20433;-35
2022/03/20 06:57:26;;;;;;;15.10;11.68;;;;;;;3.61;62.23;102887.28;5052800;28;20104;-34
2022/03/20 06:59:51;;;;;;;15.70;12.02;;;;;;;3.69;62.61;102882.09;5053248;28;20449;-34
2022/03/20 07:02:18;;;;;;;13.73;11.02;;;;;;;3.72;61.59;102873.81;5053324;28;20112;-35
2022/03/20 07:04:47;;;;;;;15.68;11.23;;;;;;;3.53;61.20;102831.78;5052778;28;20025;-35
2022/03/20 07:07:13;;;;;;;14.88;11.70;;;;;;;3.73;61.13;102863.94;5053177;28;20447;-34
2022/03/20 07:09:38;;;;;;;16.30;11.55;;;;;;;3.76;61.01;102875.25;5053263;28;20037;-34
2022/03/20 07:12:04;;;;;;;14.83;11.57;;;;;;;3.73;61.59;102859.44;5052753;28;20041;-35
2022/03/20 07:14:29;;;;;;;15.85;10.60;;;;;;;3.82;61.13;102863.97;5053147;28;20450;-34
2022/03/20 07:16:55;;;;;;;15.13;10.60;;;;;;;3.93;60.32;102854.13;5054646;28;20017;-34
2022/03/20 07:19:20;;;;;;;15.13;11.67;;;;;;;3.98;59.42;102849.22;5056821;28;20118;-34
2022/03/20 07:21:45;;;;;;;13.77;10.10;;;;;;;4.07;60.06;102849.22;5057212;28;20025;-34
2022/03/20 07:24:11;;;;;;;14.13;10.43;;;;;;;4.12;57.77;102846.97;5056312;28;20108;-34
2022/03/20 07:29:32;;;;;;;14.65;10.98;;;;;;;3.98;56.96;102801.88;5056643;28;20078;-34
2022/03/20 07:31:59;;;;;;;12.73;10.38;;;;;;;4.18;57.07;102826.81;5056606;28;20025;-34
2022/03/20 07:34:25;;;;;;;14.48;10.38;;;;;;;4.28;56.91;102830.34;5056463;28;20029;-34
2022/03/20 07:36:51;;;;;;;13.80;10.57;;;;;;;4.38;55.49;102823.16;5056772;28;20021;-35
2022/03/20 07:39:17;;;;;;;14.18;10.40;;;;;;;4.34;54.95;102808.38;5056622;28;20079;-34
2022/03/20 07:41:43;;;;;;;16.45;10.45;;;;;;;4.45;54.66;102806.53;5056859;28;20052;-34
2022/03/20 07:44:08;;;;;;;14.48;11.27;;;;;;;4.48;53.85;102807.06;5056541;28;20586;-34
2022/03/20 07:46:36;;;;;;;11.77;9.65;;;;;;;4.44;54.94;102805.69;5057108;28;20081;-35
2022/03/20 07:49:02;;;;;;;17.13;10.25;;;;;;;4.50;53.57;102820.34;5056238;28;20103;-34
2022/03/20 07:51:30;;;;;;;13.55;10.13;;;;;;;4.30;53.42;102787.38;5056430;28;20025;-34
2022/03/20 07:53:57;;;;;;;11.38;9.88;;;;;;;4.44;53.04;102820.88;5054255;28;20112;-34
2022/03/20 07:56:23;;;;;;;12.50;10.45;;;;;;;4.39;52.82;102819.50;5056573;28;20045;-34
2022/03/20 07:58:49;;;;;;;14.98;10.60;;;;;;;4.33;52.88;102806.66;5056059;28;20493;-34
2022/03/20 08:01:14;;;;;;;13.25;10.40;;;;;;;4.37;52.65;102810.75;5056507;28;20033;-34
2022/03/20 08:03:43;;;;;;;14.03;10.73;;;;;;;4.39;53.08;102810.59;5056204;28;20451;-34
2022/03/20 08:06:09;;;;;;;11.85;9.55;;;;;;;4.43;52.44;102806.66;5056119;28;20025;-34
2022/03/20 08:08:39;;;;;;;13.40;9.80;;;;;;;4.47;53.44;102802.69;5055602;28;20029;-34
2022/03/20 08:11:05;;;;;;;13.88;10.30;;;;;;;4.44;53.10;102799.44;5056375;28;20143;-34
2022/03/20 08:13:31;;;;;;;14.20;10.75;;;;;;;4.46;52.87;102805.53;5055646;28;20029;-34
2022/03/20 08:15:56;;;;;;;13.32;11.02;;;;;;;4.38;53.13;102793.69;5055450;28;20056;-34
2022/03/20 08:18:22;;;;;;;15.85;10.48;;;;;;;4.40;53.03;102790.88;5055780;28;20025;-34
2022/03/20 08:20:47;;;;;;;19.40;11.07;;;;;;;4.37;52.91;102785.78;5055772;28;20040;-34
2022/03/20 08:23:12;;;;;;;12.87;9.60;;;;;;;4.46;52.94;102797.50;5055922;28;20501;-34
2022/03/20 08:25:38;;;;;;;12.87;9.87;;;;;;;4.50;52.39;102789.03;5055563;28;20531;-34
2022/03/20 08:28:05;;;;;;;13.63;10.00;;;;;;;4.22;52.12;102747.06;5056216;28;20048;-35
2022/03/20 08:30:31;;;;;;;12.32;8.90;;;;;;;4.55;53.71;102792.13;5055439;28;20389;-35
2022/03/20 08:32:57;;;;;;;12.80;10.02;;;;;;;4.52;53.02;102783.50;5055669;28;20025;-35
2022/03/20 08:35:22;;;;;;;12.80;10.60;;;;;;;4.48;52.47;102782.94;5055710;28;20032;-35
2022/03/20 08:37:50;;;;;;;11.33;9.67;;;;;;;4.53;53.04;102772.66;5055913;28;20047;-35
2022/03/20 08:40:17;;;;;;;12.27;9.85;;;;;;;4.53;53.22;102783.34;5055365;28;20033;-35
2022/03/20 08:42:44;;;;;;;14.43;10.93;;;;;;;4.52;52.37;102775.47;5055263;28;20029;-35
2022/03/20 08:45:11;;;;;;;13.07;10.35;;;;;;;4.43;53.11;102766.47;5054969;28;20032;-35
2022/03/20 08:47:37;;;;;;;16.33;10.77;;;;;;;4.49;52.20;102775.75;5055250;28;20381;-35
2022/03/20 08:50:03;;;;;;;15.45;10.65;;;;;;;4.49;52.67;102775.75;5055522;28;20033;-35
2022/03/20 08:52:28;;;;;;;16.13;10.63;;;;;;;4.46;53.01;102766.19;5055043;28;20070;-35
2022/03/20 08:54:54;;;;;;;14.43;11.43;;;;;;;4.50;53.31;102777.47;5055112;28;20036;-35
2022/03/20 08:57:19;;;;;;;14.83;12.03;;;;;;;4.46;52.40;102784.94;5055386;28;20033;-35
2022/03/20 08:59:44;;;;;;;16.17;10.93;;;;;;;4.54;52.19;102792.25;5055567;28;20025;-35
2022/03/20 09:02:10;;;;;;;13.67;11.57;;;;;;;4.46;53.08;102798.34;5055072;28;20055;-35
2022/03/20 09:04:35;;;;;;;22.40;12.33;;;;;;;4.50;53.76;102791.72;5055044;28;20032;-35
2022/03/20 09:07:00;;;;;;;14.33;11.33;;;;;;;4.43;53.21;102795.09;5054864;28;20024;-35
2022/03/20 09:09:26;;;;;;;14.33;11.00;;;;;;;4.44;53.84;102788.72;5055226;28;20029;-34
2022/03/20 09:11:51;;;;;;;14.00;11.03;;;;;;;4.37;53.20;102775.09;5055066;28;20020;-34
2022/03/20 09:14:17;;;;;;;13.23;10.30;;;;;;;4.49;55.08;102782.00;5055074;28;20511;-34
2022/03/20 09:19:26;;;;;;;13.55;10.65;;;;;;;4.55;53.89;102778.72;5055208;28;20091;-34
2022/03/20 09:21:52;;;;;;;14.15;10.88;;;;;;;4.62;54.66;102777.13;5053406;28;20032;-34
2022/03/20 09:24:17;;;;;;;12.87;9.50;;;;;;;4.68;53.70;102765.00;5054443;28;20104;-34
2022/03/20 09:26:43;;;;;;;14.68;10.43;;;;;;;4.77;54.63;102760.59;5055190;28;20025;-34
2022/03/20 09:29:08;;;;;;;14.00;10.63;;;;;;;4.84;52.85;102767.94;5054432;28;20064;-34
2022/03/20 09:31:34;;;;;;;13.32;10.52;;;;;;;4.85;52.92;102747.31;5054592;28;20032;-35
2022/03/20 09:34:01;;;;;;;18.38;11.35;;;;;;;5.00;52.41;102747.69;5054391;28;20040;-34
2022/03/20 09:36:27;;;;;;;15.88;11.13;;;;;;;5.19;52.99;102733.34;5054487;28;20036;-34
2022/03/20 09:38:53;;;;;;;13.68;10.23;;;;;;;5.55;51.84;102728.88;5053822;28;20389;-34
2022/03/20 09:41:18;;;;;;;14.60;10.97;;;;;;;5.89;52.16;102737.09;5054410;28;20048;-35
2022/03/20 09:43:45;;;;;;;16.58;10.43;;;;;;;6.11;50.75;102746.56;5054092;28;20279;-35
2022/03/20 09:46:10;;;;;;;14.05;11.27;;;;;;;6.21;50.94;102733.88;5054111;28;20035;-35
2022/03/20 09:48:36;;;;;;;14.77;11.47;;;;;;;6.20;49.19;102705.34;5054092;28;20455;-35
2022/03/20 09:51:05;;;;;;;16.02;11.30;;;;;;;6.45;49.39;102704.50;5054385;28;20453;-35
2022/03/20 09:53:31;;;;;;;14.90;11.05;;;;;;;6.62;50.71;102699.19;5054410;28;20431;-35
2022/03/20 09:55:57;;;;;;;13.43;11.48;;;;;;;6.81;49.52;102714.25;5054074;28;20033;-35
2022/03/20 09:58:27;;;;;;;13.20;10.85;;;;;;;6.72;48.46;102700.78;5053938;28;20036;-35
2022/03/20 10:00:54;;;;;;;12.85;11.23;;;;;;;6.73;49.25;102712.38;5053912;28;20040;-35
2022/03/20 10:03:22;;;;;;;16.40;11.75;;;;;;;6.62;48.24;102716.16;5053807;28;20029;-35
2022/03/20 10:06:17;;;;;;;14.25;11.13;;;;;;;6.60;49.20;102718.19;5053962;28;20166;-35
2022/03/20 10:08:55;;;;;;;16.00;11.60;;;;;;;6.41;49.78;102703.13;5054399;28;20075;-35
2022/03/20 10:11:20;;;;;;;16.73;12.82;;;;;;;6.23;49.96;102709.53;5053741;28;20480;-35
2022/03/20 10:14:19;;;;;;;17.92;12.25;;;;;;;6.32;50.56;102714.81;5053622;28;20029;-35
2022/03/20 10:16:54;;;;;;;15.57;12.95;;;;;;;6.23;50.51;102710.38;5012383;28;20041;-35
2022/03/20 10:19:23;;;;;;;16.77;11.98;;;;;;;6.15;51.74;102713.03;5012000;28;20040;-35
2022/03/20 10:21:52;;;;;;;17.02;13.10;;;;;;;6.15;51.86;102715.72;5011654;28;20049;-35
2022/03/20 10:24:21;;;;;;;17.85;12.88;;;;;;;6.19;52.71;102746.59;5011388;28;20486;-35
2022/03/20 10:27:11;;;;;;;19.13;16.17;;;;;;;5.86;63.02;102749.00;5011572;28;20049;-35
2022/03/20 10:29:47;;;;;;;20.40;16.65;;;;;;;5.64;64.51;102736.00;5011137;28;20422;-35
2022/03/20 10:32:12;;;;;;;18.15;16.17;;;;;;;5.60;65.77;102756.09;5011437;28;20038;-35
2022/03/20 10:35:01;;;;;;;20.87;17.03;;;;;;;5.60;66.29;102756.09;5011850;28;20076;-33
2022/03/20 10:37:55;;;;;;;20.65;16.58;;;;;;;5.52;66.75;102743.44;5011315;28;20030;-34
2022/03/20 10:40:26;;;;;;;19.35;17.25;;;;;;;5.41;70.28;102755.22;5011239;28;20514;-34
2022/03/20 10:43:09;;;;;;;19.02;17.02;;;;;;;5.35;69.70;102747.78;5011299;28;20037;-34
2022/03/20 10:45:51;;;;;;;22.48;17.65;;;;;;;5.27;69.91;102745.03;5010980;28;20121;-34
2022/03/20 10:48:27;;;;;;;20.50;17.27;;;;;;;5.25;72.21;102757.72;5011418;28;20033;-35
2022/03/20 10:50:53;;;;;;;;;;;;;;;5.25;73.18;102741.63;5011753;28;20117;-35
2022/03/20 10:53:18;;;;;;;22.67;19.03;;;;;;;5.16;75.89;102748.72;5036170;28;20000;-34
2022/03/20 10:55:43;;;;;;;21.47;18.87;;;;;;;5.21;76.97;102734.88;5053116;28;20275;-35
2022/03/20 10:58:19;;;;;;;24.10;19.27;;;;;;;5.43;76.45;102739.81;5053062;28;20043;-34
2022/03/20 11:00:46;;;;;;;21.05;18.80;;;;;;;5.50;77.34;102744.59;5053308;28;20500;-34
2022/03/20 11:03:15;;;;;;;23.50;19.55;;;;;;;5.58;76.21;102740.16;5052988;28;20033;-34
2022/03/20 11:05:40;;;;;;;20.58;18.38;;;;;;;5.66;75.95;102744.75;5052802;28;20029;-34
2022/03/20 11:08:06;;;;;;;20.95;17.98;;;;;;;5.71;76.04;102742.47;5053012;28;20024;-35
2022/03/20 11:10:32;;;;;;;20.60;17.77;;;;;;;5.60;74.68;102713.16;5053381;28;20029;-35
2022/03/20 11:12:57;;;;;;;21.67;18.73;;;;;;;5.66;74.97;102744.75;5053024;28;20384;-35
2022/03/20 11:15:23;;;;;;;19.60;17.50;;;;;;;5.62;74.30;102735.34;5052966;28;20033;-35
2022/03/20 11:17:50;;;;;;;23.15;17.90;;;;;;;5.66;74.85;102739.38;5052768;28;20029;-33
2022/03/20 11:20:18;;;;;;;19.88;17.73;;;;;;;5.66;75.39;102740.25;5052854;28;20033;-34
2022/03/20 11:22:53;;;;;;;21.15;18.40;;;;;;;5.63;74.65;102728.97;5052785;28;20117;-34
2022/03/20 11:25:23;;;;;;;20.08;17.98;;;;;;;5.73;75.88;102726.22;5052782;28;20500;-34
2022/03/20 11:28:03;;;;;;;22.25;18.27;;;;;;;5.85;73.85;102746.44;5053464;28;20043;-34
2022/03/20 11:30:32;;;;;;;19.25;17.17;;;;;;;5.85;74.04;102747.28;5053460;28;20119;-34
2022/03/20 11:33:02;;;;;;;22.73;18.92;;;;;;;5.79;74.48;102739.00;5052495;28;20040;-34
2022/03/20 11:35:30;;;;;;;22.60;18.58;;;;;;;5.86;74.20;102751.69;5053432;28;20036;-34
2022/03/20 11:38:11;;;;;;;21.10;18.70;;;;;;;5.86;73.95;102751.69;5052362;28;20084;-34
2022/03/20 11:40:41;;;;;;;20.67;18.35;;;;;;;5.86;75.08;102738.25;5052972;28;20036;-34
2022/03/20 11:43:21;;;;;;;19.85;17.75;;;;;;;5.83;75.00;102727.81;5052512;28;20032;-34
2022/03/20 11:46:32;;;;;;;21.40;18.45;;;;;;;5.97;74.55;102728.31;5053333;28;20028;-35
2022/03/20 11:49:12;;;;;;;22.25;18.20;;;;;;;6.11;74.92;102727.75;5010538;28;20038;-35
2022/03/20 11:52:07;;;;;;;21.55;17.45;;;;;;;6.23;74.55;102733.72;5010976;28;20042;-34
2022/03/20 11:54:38;;;;;;;20.88;18.67;;;;;;;6.33;73.30;102738.00;5011168;28;20077;-34
2022/03/20 11:57:23;;;;;;;21.27;18.98;;;;;;;6.35;72.15;102740.53;5010870;28;20091;-35
2022/03/20 11:59:49;;;;;;;20.83;18.50;;;;;;;6.33;72.28;102740.69;5010501;28;20085;-34